Terminal Aerodrome Forecast
Issued by NWS Springfield, MO

Home | Current Version | Previous Version | Text Only | Print | Product List | Glossary On
Versions: 1 2 3 4 5 6 7 8 9 10 11 12 13 14 15 16 17 18 19 20 21 22 23 24 25 26 27 28 29 30 31
046
FTUS43 KSGF 271123
TAFSGF
TAF
KSGF 271123Z 2712/2812 27005KT P6SM SKC
     FM272000 18007KT P6SM BKN250
     FM280200 12008KT P6SM VCSH OVC050
     FM280800 15017G26KT P6SM VCSH OVC050 WS020/18045KT=

USA.gov is the U.S. government's official web portal to all federal, state and local government web resources and services.